createdAt,value
2022-08-12T00:11:18.712Z,209.5
2022-08-12T00:16:21.710Z,200.9
2022-08-12T00:21:23.972Z,264.2
2022-08-12T00:26:30.158Z,265
2022-08-12T00:31:32.646Z,69.3
2022-08-12T00:36:36.035Z,72.2
2022-08-12T00:41:44.089Z,95.8
2022-08-12T00:46:46.578Z,161
2022-08-12T00:51:49.264Z,129.5
2022-08-12T00:56:56.369Z,162.2
2022-08-12T01:02:01.151Z,76.3
2022-08-12T01:07:04.678Z,105.2
2022-08-12T01:12:07.167Z,78.3
2022-08-12T01:17:10.243Z,119.1
2022-08-12T01:22:12.928Z,67
2022-08-12T01:27:15.280Z,76.4
2022-08-12T01:32:17.711Z,50.6
2022-08-12T01:37:20.299Z,46.5
2022-08-12T01:42:22.839Z,39.5
2022-08-12T01:47:25.582Z,61
2022-08-12T01:52:27.878Z,43.6
2022-08-12T01:57:57.471Z,45.6
2022-08-12T02:02:32.988Z,86.9
2022-08-12T02:07:35.875Z,33
2022-08-12T02:12:38.226Z,43.2
2022-08-12T02:17:54.865Z,64
2022-08-12T02:22:48.896Z,340.7
2022-08-12T02:27:51.937Z,515.9
2022-08-12T02:32:54.274Z,691.9
2022-08-12T02:37:58.780Z,1063.8
2022-08-12T02:43:01.320Z,952.9
2022-08-12T02:48:03.616Z,933.7
2022-08-12T02:53:06.142Z,1085.6
2022-08-12T02:58:12.220Z,1036.4
2022-08-12T03:03:12.791Z,1052.5
2022-08-12T03:08:20.205Z,1064.2
2022-08-12T03:13:17.663Z,1050.8
2022-08-12T03:18:23.390Z,1043.6
2022-08-12T03:23:28.803Z,1104.4
2022-08-12T03:28:26.174Z,1104.4
2022-08-12T03:33:28.843Z,1104.4
2022-08-12T03:38:31.459Z,1104.4
2022-08-12T03:43:34.027Z,1104.4
2022-08-12T03:48:36.544Z,1999.9
2022-08-12T03:53:37.084Z,1104.4
2022-08-12T03:58:39.490Z,1104.4
2022-08-12T04:03:42.529Z,1104.4
2022-08-12T04:08:44.926Z,1074.1
2022-08-12T04:13:47.507Z,1069.2
2022-08-12T04:18:49.855Z,1073.3
2022-08-12T04:23:52.228Z,1097.3
2022-08-12T04:28:54.871Z,1104.4
2022-08-12T04:33:57.478Z,1065.4
2022-08-12T04:39:00.090Z,1031.5
2022-08-12T04:44:03.375Z,991
2022-08-12T04:49:06.610Z,1097.8
2022-08-12T04:54:08.994Z,1104.4
2022-08-12T04:59:17.008Z,1104.4
2022-08-12T05:04:19.255Z,1073.7
2022-08-12T05:09:21.655Z,1062.8
2022-08-12T05:14:34.444Z,1104.4
2022-08-12T05:19:39.646Z,1104
2022-08-12T05:24:46.620Z,1086.1
2022-08-12T05:30:06.094Z,1031.7
2022-08-12T05:34:51.185Z,969
2022-08-12T05:39:53.866Z,880.2
2022-08-12T05:44:56.656Z,864.5
2022-08-12T05:49:59.652Z,915.6
2022-08-12T05:55:02.254Z,903.7
2022-08-12T06:00:04.648Z,1000.1
2022-08-12T06:05:07.062Z,987
2022-08-12T06:10:09.674Z,974
2022-08-12T06:15:12.224Z,1046.8
2022-08-12T06:20:22.595Z,1045.2
2022-08-12T06:25:21.984Z,1067
2022-08-12T06:30:35.189Z,921.4
2022-08-12T06:35:47.548Z,882
2022-08-12T06:40:37.936Z,940.4
2022-08-12T06:45:45.151Z,1052
2022-08-12T06:50:48.844Z,1088.9
2022-08-12T06:55:56.869Z,1081.6
2022-08-12T07:01:00.794Z,1090.1
2022-08-12T07:06:04.022Z,1074.9
2022-08-12T07:11:06.607Z,1088
2022-08-12T07:16:09.310Z,1087.8
2022-08-12T07:21:12.020Z,1076.7
2022-08-12T07:26:14.691Z,1097.3
2022-08-12T07:31:19.543Z,1080.5
2022-08-12T07:36:21.926Z,1101.8
2022-08-12T07:41:24.718Z,1103.7
2022-08-12T07:46:27.715Z,1090.6
2022-08-12T07:51:30.355Z,1094.8
2022-08-12T07:56:32.966Z,1100.7
2022-08-12T08:01:35.858Z,1080.9
2022-08-12T08:06:38.874Z,1078.8
2022-08-12T08:11:41.174Z,1101.3
2022-08-12T08:16:43.815Z,1067.8
2022-08-12T08:21:46.103Z,1103.8
2022-08-12T08:26:48.641Z,1098.6
2022-08-12T08:31:50.943Z,1116.2
2022-08-12T08:36:53.437Z,1054.7
2022-08-12T08:42:13.524Z,805
2022-08-12T08:47:02.639Z,278.8
2022-08-12T08:52:04.981Z,50.8
2022-08-12T08:57:07.596Z,477
2022-08-12T09:02:10.192Z,353.8
2022-08-12T09:07:16.670Z,117.1
2022-08-12T09:35:04.147Z,1496.7
2022-08-12T09:40:55.980Z,1185.5
2022-08-12T09:45:22.965Z,1429.2
2022-08-12T09:50:26.379Z,372.4
2022-08-12T09:55:59.478Z,204.3
2022-08-12T10:00:48.502Z,1023
2022-08-12T10:06:20.697Z,106.6
2022-08-12T10:10:47.897Z,22.9
2022-08-12T10:16:01.378Z,15.2
2022-08-12T10:20:52.850Z,5.3
2022-08-12T10:26:18.612Z,3.1
2022-08-12T10:31:01.725Z,4.1
2022-08-12T10:36:07.042Z,2.5
2022-08-12T10:41:09.328Z,6.2
2022-08-12T10:46:17.022Z,3.1
2022-08-12T10:51:23.059Z,4.2
2022-08-12T10:56:34.407Z,11.8
2022-08-12T11:03:01.657Z,4.2
2022-08-12T11:07:04.517Z,4.9
2022-08-12T11:12:08.061Z,4.7
2022-08-12T11:17:35.228Z,4
2022-08-12T11:21:57.245Z,4.4
2022-08-12T11:32:02.275Z,4.8
2022-08-12T11:37:05.071Z,2.6
2022-08-12T11:42:10.712Z,5.6
2022-08-12T11:47:15.445Z,3.8
2022-08-12T11:52:35.347Z,2.6
2022-08-12T11:57:52.477Z,6.6
2022-08-12T12:08:36.797Z,13
2022-08-12T12:12:49.454Z,3.5
2022-08-12T12:17:54.949Z,3.7
2022-08-12T12:22:58.463Z,5.5
2022-08-12T12:28:04.283Z,5.2
2022-08-12T12:33:09.293Z,3.7
2022-08-12T12:38:11.860Z,8.8
2022-08-12T12:43:15.876Z,4.4
2022-08-12T12:48:23.801Z,2.3
2022-08-12T12:54:05.489Z,2.1
2022-08-12T12:58:31.991Z,2.4
2022-08-12T13:03:48.782Z,4.4
2022-08-12T13:08:41.906Z,4.4
2022-08-12T13:14:08.392Z,3.5
2022-08-12T13:18:44.857Z,3.3
2022-08-12T13:23:49.095Z,4.7
2022-08-12T13:28:53.061Z,5.8
2022-08-12T13:34:29.531Z,5.7
2022-08-12T13:38:58.839Z,9.4
2022-08-12T13:44:01.566Z,8.9
2022-08-12T13:49:04.804Z,9.2
2022-08-12T13:54:09.911Z,8.4
2022-08-12T13:59:15.853Z,34.9
2022-08-12T14:04:16.454Z,26.7
2022-08-12T14:09:25.941Z,12.9
2022-08-12T14:14:25.934Z,4.6
2022-08-12T14:19:31.662Z,5.4
2022-08-12T14:24:33.655Z,4.6
2022-08-12T14:29:57.025Z,3.1
2022-08-12T14:34:49.609Z,5.3
2022-08-12T14:39:50.849Z,4.5
2022-08-12T14:44:57.173Z,5.8
2022-08-12T14:50:41.959Z,3.4
2022-08-12T15:00:23.505Z,1350.7
2022-08-12T15:06:03.653Z,7.6
2022-08-12T15:10:34.015Z,24.3
2022-08-12T15:15:36.241Z,8.5
2022-08-12T15:20:37.972Z,5.2
2022-08-12T15:25:47.289Z,4.7
2022-08-12T15:30:43.419Z,5.6
2022-08-12T15:35:50.530Z,4.9
2022-08-12T15:40:56.691Z,5.5
2022-08-12T15:46:02.257Z,2.8
2022-08-12T15:51:08.000Z,4.3
2022-08-12T15:56:12.479Z,3.4
2022-08-12T16:01:11.986Z,6.2
2022-08-12T16:06:30.935Z,5.8
2022-08-12T16:11:26.301Z,4.2
2022-08-12T16:16:38.563Z,6.4
2022-08-12T16:21:50.982Z,5.4
2022-08-12T16:26:51.238Z,6.9
2022-08-12T16:31:43.911Z,2.7
2022-08-12T16:36:51.886Z,3.9
2022-08-12T16:41:59.522Z,9.6
2022-08-12T16:47:30.452Z,249.9
2022-08-12T16:52:06.047Z,112.3
2022-08-12T16:57:09.060Z,61.3
2022-08-12T17:02:12.446Z,74
2022-08-12T17:07:17.467Z,164.8
2022-08-12T17:12:19.882Z,153.9
2022-08-12T17:17:38.626Z,350.2
2022-08-12T17:22:30.158Z,894
2022-08-12T17:27:34.104Z,690.9
2022-08-12T17:32:39.333Z,750.4
2022-08-12T17:37:44.365Z,917.8
2022-08-12T17:42:48.237Z,1062.8
2022-08-12T17:48:00.823Z,1148.7
2022-08-12T17:52:51.574Z,1285
2022-08-12T17:57:53.798Z,1308.2
2022-08-12T18:03:00.770Z,1267.2
2022-08-12T18:08:05.441Z,1307.3
2022-08-12T18:13:34.761Z,896.1
2022-08-12T18:18:24.913Z,997.3
2022-08-12T18:23:25.139Z,889.2
2022-08-12T18:28:31.746Z,1017.7
2022-08-12T18:33:41.778Z,1126.4
2022-08-12T18:38:38.201Z,1033.7
2022-08-12T18:43:57.949Z,1073.8
2022-08-12T18:48:47.541Z,868.4
2022-08-12T18:54:05.846Z,850
2022-08-12T18:59:02.989Z,1049.9
2022-08-12T19:04:06.390Z,915.5
2022-08-12T19:09:09.876Z,1052.3
2022-08-12T19:14:13.117Z,908.7
2022-08-12T19:19:17.460Z,838.6
2022-08-12T19:24:24.670Z,749.7
2022-08-12T19:29:27.902Z,918.9
2022-08-12T19:40:07.645Z,267.2
2022-08-12T19:44:44.842Z,521.4
2022-08-12T19:49:48.480Z,781.7
2022-08-12T19:54:56.122Z,759.7
2022-08-12T20:00:03.282Z,872.1
2022-08-12T20:05:25.588Z,905.7
2022-08-12T20:10:09.068Z,755.5
2022-08-12T20:15:15.061Z,932.2
2022-08-12T20:20:18.930Z,945.6
2022-08-12T20:25:28.102Z,956.2
2022-08-12T20:30:37.237Z,933.9
2022-08-12T20:35:39.266Z,1037.5
2022-08-12T20:40:38.142Z,870.3
2022-08-12T20:45:40.049Z,1053.3
2022-08-12T20:50:39.315Z,1060.4
2022-08-12T20:55:47.083Z,1173.2
2022-08-12T21:00:51.288Z,1253.7
2022-08-12T21:06:09.930Z,1222.4
2022-08-12T21:10:59.062Z,1212.1
2022-08-12T21:16:01.828Z,1147.9
2022-08-12T21:21:05.359Z,1164.7
2022-08-12T21:26:11.454Z,1008
2022-08-12T21:32:35.804Z,1057.4
2022-08-12T21:36:32.524Z,833.4
2022-08-12T21:41:28.170Z,995.5
2022-08-12T21:46:37.056Z,1072.2
2022-08-12T21:51:49.876Z,1109.7
2022-08-12T21:56:42.902Z,1180.9
2022-08-12T22:01:49.267Z,1114
2022-08-12T22:06:52.826Z,1072.5
2022-08-12T22:11:59.945Z,972.1
2022-08-12T22:17:05.071Z,960.6
2022-08-12T22:22:13.442Z,886.5
2022-08-12T22:27:28.409Z,802.6
2022-08-12T22:32:26.245Z,578.4
2022-08-12T22:37:34.369Z,333.2
2022-08-12T22:42:38.180Z,274.5
2022-08-12T22:47:53.299Z,147
2022-08-12T22:52:49.472Z,113
2022-08-12T22:57:54.103Z,112.9
2022-08-12T23:03:00.904Z,166.8
2022-08-12T23:08:06.857Z,84.7
2022-08-12T23:13:10.848Z,119.8
2022-08-12T23:18:16.694Z,128.3
2022-08-12T23:23:21.515Z,122.4
2022-08-12T23:28:29.680Z,111.6
2022-08-12T23:34:00.489Z,138.6
2022-08-12T23:38:35.710Z,90.4
2022-08-12T23:43:38.600Z,95.9
2022-08-12T23:48:47.812Z,70.5
2022-08-12T23:53:54.816Z,90.9
2022-08-12T23:59:00.904Z,84.9
